Airport View

Enter AWOS ICAO identifier for current METAR.

ex. KFNL

KFLY 251555Z AUTO 36015G21KT 1 1/4SM -SN OVC013 M10/M13 A3005 RMK AO2 T11051130

25 Oct 2020 16:10

Frequency: 118.450

Phone: 719-683-5371

Other Area AWOS: KCOS - KAFF - KMNH - KFCS

TAF AMD KCOS 251452Z 2515/2612 35012KT 3SM -SHSN SCT006 OVC015 TEMPO 2515/2516 1SM -SHSN BR OVC006 FM251600 34018G28KT P6SM -SHSN SCT010 OVC020 FM251900 03015G25KT 3SM -SN OVC015 FM252300 01015G25KT 1SM -SN BKN008 OVC012 FM260400 36012KT 1SM -SN BKN008 OVC010